Time;durP1;ratioP1;P1;durP2;ratioP2;P2;SDS_P1;SDS_P2;PMS_P1;PMS_P2;Temp;Humidity;BMP_temperature;BMP_pressure;BME280_temperature;BME280_humidity;BME280_pressure;Samples;Min_cycle;Max_cycle;Signal;HPM_P1;HPM_P2
2023/11/29 00:05:06;;;;;;;63.70;20.30;;;;;;;-1.08;81.50;99169.01;683039;1262;22163;-79
2023/11/29 00:21:32;;;;;;;74.70;29.50;;;;;;;-1.09;82.59;99171.08;683267;1257;22212;-79
2023/11/29 00:37:10;;;;;;;68.60;23.00;;;;;;;-0.82;81.99;99178.15;683495;1260;22302;-80
2023/11/29 00:52:47;;;;;;;77.10;21.10;;;;;;;-0.52;82.00;99199.23;683492;1261;22188;-79
2023/11/29 01:08:27;;;;;;;71.80;21.40;;;;;;;-0.37;81.77;99220.17;683225;1257;23204;-79
2023/11/29 01:24:06;;;;;;;65.60;20.10;;;;;;;-0.58;82.15;99227.91;683342;1260;23167;-79
2023/11/29 01:39:44;;;;;;;101.40;32.70;;;;;;;-0.56;83.24;99231.59;683257;1262;138410;-80
2023/11/29 01:55:41;;;;;;;67.50;21.00;;;;;;;-0.35;82.74;99233.22;683314;1260;139848;-79
2023/11/29 02:11:40;;;;;;;77.10;23.70;;;;;;;-0.33;82.51;99229.02;682889;1261;139820;-80
2023/11/29 02:27:17;;;;;;;86.50;28.90;;;;;;;-0.32;83.33;99230.52;682984;1262;140471;-80
2023/11/29 02:42:47;;;;;;;77.20;29.10;;;;;;;-0.33;83.59;99230.55;682971;1262;139924;-77
2023/11/29 02:58:10;;;;;;;89.70;29.60;;;;;;;-0.27;83.83;99238.11;683344;1263;139826;-79
2023/11/29 03:13:47;;;;;;;98.80;32.30;;;;;;;-0.19;83.67;99239.70;683192;1263;140100;-79
2023/11/29 03:29:24;;;;;;;96.00;31.70;;;;;;;-0.24;83.45;99233.64;683277;1262;139800;-77
2023/11/29 03:45:02;;;;;;;93.90;32.20;;;;;;;-0.22;83.33;99237.83;683275;1262;140021;-78
2023/11/29 04:00:39;;;;;;;90.60;31.10;;;;;;;-0.42;82.70;99237.30;683334;1260;22338;-78
2023/11/29 04:16:36;;;;;;;113.50;38.90;;;;;;;-0.56;82.20;99240.14;683202;1257;22398;-78
2023/11/29 04:32:13;;;;;;;103.10;36.40;;;;;;;-1.16;81.34;99232.91;683341;1263;23167;-79
2023/11/29 04:47:50;;;;;;;101.30;32.20;;;;;;;-1.99;81.95;99218.71;683724;1262;22126;-79
2023/11/29 05:03:28;;;;;;;208.50;55.80;;;;;;;-2.53;82.86;99217.22;683072;1262;22161;-79
2023/11/29 05:19:06;;;;;;;92.90;28.60;;;;;;;-2.64;82.97;99218.46;675415;1261;10137938;-79
2023/11/29 05:34:42;;;;;;;80.60;25.00;;;;;;;-2.59;82.69;99218.41;683070;1262;22924;-79
2023/11/29 05:50:23;;;;;;;85.20;30.70;;;;;;;-2.48;82.74;99227.45;683225;1262;139290;-79
2023/11/29 06:05:59;;;;;;;413.90;107.70;;;;;;;-2.44;80.41;99242.14;682674;1263;140442;-79
2023/11/29 06:21:39;;;;;;;111.50;38.90;;;;;;;-2.41;80.31;99250.39;682822;1263;139779;-79
2023/11/29 06:37:17;;;;;;;405.50;109.30;;;;;;;-1.94;81.30;99254.79;682706;1262;139612;-79
2023/11/29 06:53:00;;;;;;;193.70;64.00;;;;;;;-1.64;81.68;99266.92;682885;1260;140142;-79
2023/11/29 07:08:55;;;;;;;344.10;114.00;;;;;;;-1.05;82.21;99287.89;683051;1262;139810;-79
2023/11/29 07:24:33;;;;;;;143.80;52.40;;;;;;;-1.03;82.01;99303.06;683493;1262;22183;-80
2023/11/29 07:40:12;;;;;;;252.60;89.10;;;;;;;-0.74;80.68;99316.38;683628;1263;22176;-80
2023/11/29 07:55:49;;;;;;;166.80;59.50;;;;;;;-0.22;78.25;99324.09;683129;1263;22956;-80
2023/11/29 08:11:26;;;;;;;112.20;46.10;;;;;;;-0.42;79.00;99334.53;683039;1259;22355;-80
2023/11/29 08:27:24;;;;;;;97.60;36.50;;;;;;;-0.48;80.60;99344.68;683527;1263;23270;-80
2023/11/29 08:43:01;;;;;;;101.50;39.10;;;;;;;-0.12;80.08;99348.59;683308;1262;22485;-80
2023/11/29 08:58:58;;;;;;;;;;;;;;;0.30;80.43;99353.15;683129;1264;22803;-80
2023/11/29 09:14:35;;;;;;;53.80;30.90;;;;;;;3.02;81.75;99354.79;683269;1258;126336;-80
2023/11/29 09:30:13;;;;;;;64.90;33.40;;;;;;;5.42;74.98;99363.70;682760;1262;139461;-81
2023/11/29 09:45:49;;;;;;;71.80;30.10;;;;;;;6.12;68.46;99368.60;683227;1257;139458;-82
2023/11/29 10:01:26;;;;;;;124.40;44.30;;;;;;;5.84;64.39;99365.40;683215;1264;22144;-81
2023/11/29 10:17:03;;;;;;;122.60;43.00;;;;;;;5.44;62.95;99369.69;683600;1260;22252;-80
2023/11/29 10:32:40;;;;;;;52.90;24.50;;;;;;;5.85;61.00;99376.70;683337;1263;23310;-80
2023/11/29 10:49:01;;;;;;;61.30;25.90;;;;;;;4.26;59.37;99377.13;683262;1260;22161;-79
2023/11/29 11:05:00;;;;;;;45.70;21.30;;;;;;;3.44;61.32;99378.01;683293;1259;22509;-79
2023/11/29 11:21:02;;;;;;;55.40;23.70;;;;;;;3.54;61.99;99373.25;683571;1257;22131;-79
2023/11/29 11:37:00;;;;;;;94.20;36.00;;;;;;;2.57;63.39;99358.90;683465;1259;22177;-79
2023/11/29 11:52:38;;;;;;;56.50;26.20;;;;;;;1.35;64.20;99367.48;683509;1257;23361;-78
2023/11/29 12:08:16;;;;;;;76.00;31.50;;;;;;;1.46;66.05;99363.57;682846;1260;139618;-78
2023/11/29 12:23:55;;;;;;;59.70;24.60;;;;;;;1.21;66.26;99363.91;682924;1260;22428;-78
2023/11/29 12:39:34;;;;;;;67.90;29.60;;;;;;;0.84;67.69;99351.09;682971;1259;22318;-78
2023/11/29 12:55:15;;;;;;;56.60;23.30;;;;;;;0.32;70.48;99335.67;683338;1262;22222;-78
2023/11/29 13:10:55;;;;;;;52.40;21.40;;;;;;;-0.04;72.34;99336.11;683280;1261;22199;-79
2023/11/29 13:26:49;;;;;;;50.90;20.10;;;;;;;0.20;72.87;99341.20;683402;1259;22144;-79
2023/11/29 13:42:27;;;;;;;48.10;17.50;;;;;;;0.05;73.53;99359.46;683558;1258;22909;-78
2023/11/29 13:58:04;;;;;;;42.90;16.80;;;;;;;0.21;72.39;99358.02;683678;1257;22159;-79
2023/11/29 14:13:41;;;;;;;55.50;21.80;;;;;;;-0.30;74.11;99364.41;683435;1257;22148;-79
2023/11/29 14:29:18;;;;;;;42.60;16.80;;;;;;;-0.17;74.11;99364.39;683309;1262;22220;-79
2023/11/29 14:44:55;;;;;;;45.90;18.70;;;;;;;-0.43;75.17;99364.13;683455;1259;139822;-79
2023/11/29 15:00:33;;;;;;;132.60;37.00;;;;;;;-0.54;75.92;99360.42;683559;1262;22130;-80
2023/11/29 15:16:10;;;;;;;79.10;28.60;;;;;;;-0.49;75.87;99350.04;683185;1262;23688;-79
2023/11/29 15:31:47;;;;;;;105.90;35.60;;;;;;;-0.50;76.67;99360.23;683168;1257;23226;-79
2023/11/29 15:47:24;;;;;;;86.90;34.20;;;;;;;-0.62;76.36;99351.10;683629;1259;22976;-79
2023/11/29 16:03:41;;;;;;;86.60;32.40;;;;;;;-0.80;76.08;99350.55;683511;1257;22883;-80
2023/11/29 16:19:21;;;;;;;56.30;26.20;;;;;;;-0.95;75.65;99346.93;683342;1263;22107;-80
2023/11/29 16:35:01;;;;;;;75.00;27.50;;;;;;;-1.40;76.56;99341.29;683415;1262;22351;-79
2023/11/29 16:50:39;;;;;;;91.20;29.70;;;;;;;-1.31;77.38;99340.29;682890;1259;141927;-80
2023/11/29 17:06:24;;;;;;;97.80;29.80;;;;;;;-1.08;77.59;99348.48;680592;1262;10141519;-79
2023/11/29 17:22:01;;;;;;;263.90;90.80;;;;;;;-0.67;77.75;99357.25;682912;1261;139729;-79
2023/11/29 17:37:39;;;;;;;90.40;32.20;;;;;;;-0.86;78.75;99370.11;683072;1261;140307;-79
2023/11/29 17:53:15;;;;;;;126.30;37.70;;;;;;;-0.91;79.10;99375.70;682921;1262;139179;-79
2023/11/29 18:08:59;;;;;;;380.90;101.50;;;;;;;-0.78;79.39;99379.11;683030;1262;140286;-79
2023/11/29 18:24:37;;;;;;;79.30;27.90;;;;;;;-0.48;78.25;99379.89;682953;1261;139792;-79
2023/11/29 18:40:17;;;;;;;60.50;24.50;;;;;;;-0.55;77.93;99360.36;682934;1260;139219;-79
2023/11/29 18:55:58;;;;;;;60.70;25.10;;;;;;;-0.43;77.74;99352.45;683233;1262;23122;-79
2023/11/29 19:11:36;;;;;;;79.20;26.20;;;;;;;-0.50;77.76;99342.21;683011;1263;22227;-79
2023/11/29 19:27:15;;;;;;;58.30;22.10;;;;;;;-0.65;78.68;99335.13;682678;1259;22409;-79
2023/11/29 19:42:54;;;;;;;61.60;22.40;;;;;;;-0.34;77.47;99339.40;682740;1260;139586;-79
2023/11/29 19:58:31;;;;;;;75.30;30.00;;;;;;;-0.22;77.17;99340.56;682870;1262;23192;-79
2023/11/29 20:14:08;;;;;;;74.10;27.00;;;;;;;-0.40;77.86;99332.00;682533;1262;140187;-79
2023/11/29 20:30:05;;;;;;;99.00;32.40;;;;;;;-0.61;79.14;99319.65;682983;1262;22993;-79
2023/11/29 20:45:42;;;;;;;75.00;26.40;;;;;;;-0.48;79.00;99313.19;683015;1262;22189;-80
2023/11/29 21:01:19;;;;;;;60.60;27.50;;;;;;;-0.46;78.50;99304.33;682935;1262;22141;-79
2023/11/29 21:16:56;;;;;;;49.80;21.00;;;;;;;-0.71;79.11;99294.94;682506;1262;140002;-80
2023/11/29 21:32:36;;;;;;;62.40;23.70;;;;;;;-0.75;79.21;99294.33;682669;1260;139943;-79
2023/11/29 21:48:13;;;;;;;76.00;26.70;;;;;;;-0.83;78.99;99293.23;682664;1264;139548;-79
2023/11/29 22:03:50;;;;;;;70.00;24.10;;;;;;;-0.48;78.09;99285.04;682825;1263;22419;-79
2023/11/29 22:19:27;;;;;;;55.40;22.10;;;;;;;-0.36;77.24;99281.44;683050;1269;22350;-80
2023/11/29 22:35:04;;;;;;;70.50;25.50;;;;;;;-0.54;76.35;99281.26;682968;1263;22139;-80
2023/11/29 22:51:01;;;;;;;67.60;23.80;;;;;;;-0.85;76.05;99267.89;683121;1263;22257;-79
2023/11/29 23:06:38;;;;;;;72.60;27.70;;;;;;;-1.10;75.92;99263.34;683046;1263;23285;-80
2023/11/29 23:22:15;;;;;;;60.90;23.70;;;;;;;-1.11;75.82;99244.33;682843;1263;22354;-80
2023/11/29 23:37:52;;;;;;;59.40;26.00;;;;;;;-1.25;76.02;99221.43;683076;1263;23048;-80
2023/11/29 23:53:32;;;;;;;74.00;28.90;;;;;;;-1.33;77.03;99209.34;682857;1260;139040;-79
